AIC630 VOHS-VABB
Flight info
| Callsign | AIC630 |
|---|---|
| Flight time | N/A |
| Altitude | 40000 |
| Route | TAMIV5 APUSU W18 OPAKA EMRAK2A |
| Aircraft | B77W/H-SDE1E2E3FGHIJ2J3J4J5M1RWXY/LB1D1 |
Departure
| Time | 2026-04-25 10:46 |
|---|---|
| Airport | Rajiv Gandhi International Airport (VOHS) |
Arrival
| Time | N/A |
|---|---|
| Airport | Chhatrapati Shivaji Maharaj International Airport (VABB) |
| Time | Latitude | Longitude | Altitude | Speed | Heading |
|---|---|---|---|---|---|
| 2026-04-25 10:21 | 17.23418 | 78.42573 | 1985 ft | 0 kts | 359° |
| 2026-04-25 10:35 | 17.23417 | 78.42573 | 1985 ft | 2 kts | 359° |
| 2026-04-25 10:35 | 17.23404 | 78.42573 | 1986 ft | 2 kts | 359° |
| 2026-04-25 10:35 | 17.23393 | 78.42573 | 1986 ft | 2 kts | 359° |
| 2026-04-25 10:35 | 17.23381 | 78.42573 | 1985 ft | 3 kts | 359° |
| 2026-04-25 10:36 | 17.23362 | 78.42574 | 1984 ft | 3 kts | 0° |
| 2026-04-25 10:36 | 17.23344 | 78.42570 | 1984 ft | 3 kts | 31° |
| 2026-04-25 10:36 | 17.23329 | 78.42558 | 1985 ft | 3 kts | 55° |
| 2026-04-25 10:36 | 17.23323 | 78.42540 | 1982 ft | 3 kts | 90° |
| 2026-04-25 10:37 | 17.23323 | 78.42534 | 1982 ft | 0 kts | 90° |
| 2026-04-25 10:38 | 17.23323 | 78.42535 | 1985 ft | 0 kts | 90° |
| 2026-04-25 10:38 | 17.23323 | 78.42540 | 1985 ft | 2 kts | 90° |
| 2026-04-25 10:39 | 17.23323 | 78.42562 | 1986 ft | 5 kts | 89° |
| 2026-04-25 10:39 | 17.23325 | 78.42626 | 1988 ft | 12 kts | 88° |
| 2026-04-25 10:39 | 17.23298 | 78.42716 | 1987 ft | 14 kts | 147° |
| 2026-04-25 10:39 | 17.23202 | 78.42729 | 1987 ft | 10 kts | 180° |
| 2026-04-25 10:40 | 17.23200 | 78.42729 | 1987 ft | 0 kts | 180° |
| 2026-04-25 10:41 | 17.23179 | 78.42729 | 1987 ft | 10 kts | 180° |
| 2026-04-25 10:41 | 17.23087 | 78.42770 | 1988 ft | 17 kts | 112° |
| 2026-04-25 10:41 | 17.23080 | 78.42893 | 1984 ft | 17 kts | 88° |
| 2026-04-25 10:41 | 17.23082 | 78.43023 | 1988 ft | 20 kts | 89° |
| 2026-04-25 10:42 | 17.23086 | 78.43211 | 1986 ft | 37 kts | 89° |
| 2026-04-25 10:42 | 17.23090 | 78.43473 | 1984 ft | 30 kts | 89° |
| 2026-04-25 10:42 | 17.23093 | 78.43692 | 1985 ft | 30 kts | 89° |
| 2026-04-25 10:42 | 17.23096 | 78.43908 | 1985 ft | 30 kts | 89° |
| 2026-04-25 10:43 | 17.23099 | 78.44127 | 1989 ft | 30 kts | 89° |
| 2026-04-25 10:43 | 17.23101 | 78.44346 | 1987 ft | 30 kts | 90° |
| 2026-04-25 10:43 | 17.23102 | 78.44562 | 1986 ft | 30 kts | 89° |
| 2026-04-25 10:43 | 17.23106 | 78.44780 | 1986 ft | 30 kts | 89° |
| 2026-04-25 10:44 | 17.23109 | 78.44998 | 1987 ft | 30 kts | 89° |
| 2026-04-25 10:44 | 17.23118 | 78.45216 | 1986 ft | 30 kts | 83° |
| 2026-04-25 10:44 | 17.23062 | 78.45317 | 1988 ft | 17 kts | 170° |
| 2026-04-25 10:44 | 17.23044 | 78.45317 | 1987 ft | 0 kts | 180° |
| 2026-04-25 10:45 | 17.23043 | 78.45317 | 1987 ft | 2 kts | 180° |
| 2026-04-25 10:45 | 17.22935 | 78.45262 | 1989 ft | 26 kts | 225° |
| 2026-04-25 10:45 | 17.22908 | 78.45145 | 1986 ft | 0 kts | 270° |
| 2026-04-25 10:46 | 17.22908 | 78.45080 | 1986 ft | 43 kts | 270° |
| 2026-04-25 10:46 | 17.22899 | 78.44349 | 1987 ft | 157 kts | 269° |
| 2026-04-25 10:46 | 17.22889 | 78.42897 | 2377 ft | 222 kts | 270° |
| 2026-04-25 10:46 | 17.22799 | 78.41207 | 3357 ft | 245 kts | 266° |
| 2026-04-25 10:47 | 17.22689 | 78.39360 | 4130 ft | 253 kts | 269° |
| 2026-04-25 10:47 | 17.22698 | 78.37513 | 5062 ft | 256 kts | 272° |
| 2026-04-25 10:47 | 17.22723 | 78.35630 | 5744 ft | 267 kts | 271° |
| 2026-04-25 10:47 | 17.22724 | 78.33644 | 6007 ft | 275 kts | 270° |
| 2026-04-25 10:48 | 17.22771 | 78.32320 | 5957 ft | 273 kts | 279° |
| 2026-04-25 10:48 | 17.23206 | 78.30334 | 6005 ft | 284 kts | 287° |
| 2026-04-25 10:48 | 17.23787 | 78.28394 | 6000 ft | 281 kts | 289° |
| 2026-04-25 10:48 | 17.24463 | 78.26465 | 6132 ft | 281 kts | 294° |
| 2026-04-25 10:49 | 17.25530 | 78.23929 | 7165 ft | 291 kts | 295° |
| 2026-04-25 10:49 | 17.26082 | 78.22647 | 7907 ft | 290 kts | 295° |
| 2026-04-25 10:49 | 17.26916 | 78.20708 | 8876 ft | 295 kts | 295° |
| 2026-04-25 10:49 | 17.27764 | 78.18729 | 9848 ft | 299 kts | 295° |
| 2026-04-25 10:50 | 17.28620 | 78.16715 | 10635 ft | 311 kts | 295° |
| 2026-04-25 10:50 | 17.29537 | 78.14549 | 10956 ft | 341 kts | 295° |
| 2026-04-25 10:50 | 17.30526 | 78.12206 | 11355 ft | 365 kts | 295° |
| 2026-04-25 10:50 | 17.31562 | 78.09735 | 12265 ft | 373 kts | 295° |
| 2026-04-25 10:51 | 17.32615 | 78.07211 | 13326 ft | 378 kts | 295° |
| 2026-04-25 10:51 | 17.33673 | 78.04672 | 14323 ft | 382 kts | 294° |
| 2026-04-25 10:51 | 17.34732 | 78.02126 | 15308 ft | 385 kts | 294° |
| 2026-04-25 10:51 | 17.35806 | 77.99543 | 16350 ft | 387 kts | 293° |
| 2026-04-25 10:52 | 17.36876 | 77.96968 | 17348 ft | 391 kts | 293° |
| 2026-04-25 10:52 | 17.37972 | 77.94329 | 18312 ft | 395 kts | 292° |
| 2026-04-25 10:52 | 17.39064 | 77.91699 | 19130 ft | 399 kts | 292° |
| 2026-04-25 10:52 | 17.40188 | 77.88993 | 19906 ft | 405 kts | 291° |
| 2026-04-25 10:53 | 17.41306 | 77.86295 | 20692 ft | 411 kts | 291° |
| 2026-04-25 10:53 | 17.42459 | 77.83514 | 21511 ft | 415 kts | 291° |
| 2026-04-25 10:53 | 17.43603 | 77.80753 | 22321 ft | 420 kts | 291° |
| 2026-04-25 10:53 | 17.44781 | 77.77913 | 23119 ft | 424 kts | 290° |
| 2026-04-25 10:54 | 17.45951 | 77.75088 | 23800 ft | 429 kts | 290° |
| 2026-04-25 10:54 | 17.47143 | 77.72208 | 24451 ft | 432 kts | 290° |
| 2026-04-25 10:54 | 17.48343 | 77.69309 | 25111 ft | 435 kts | 290° |
| 2026-04-25 10:54 | 17.49556 | 77.66377 | 25788 ft | 439 kts | 289° |
| 2026-04-25 10:55 | 17.50764 | 77.63456 | 26452 ft | 442 kts | 289° |
| 2026-04-25 10:55 | 17.51993 | 77.60483 | 27110 ft | 445 kts | 289° |
| 2026-04-25 10:55 | 17.53236 | 77.57475 | 27746 ft | 448 kts | 289° |
| 2026-04-25 10:55 | 17.54471 | 77.54482 | 28359 ft | 452 kts | 289° |
| 2026-04-25 10:56 | 17.55726 | 77.51441 | 28969 ft | 455 kts | 288° |
| 2026-04-25 10:56 | 17.56974 | 77.48413 | 29556 ft | 459 kts | 288° |
| 2026-04-25 10:56 | 17.58249 | 77.45321 | 30101 ft | 462 kts | 288° |
| 2026-04-25 10:56 | 17.59533 | 77.42203 | 30564 ft | 465 kts | 288° |
| 2026-04-25 10:57 | 17.60806 | 77.39110 | 30994 ft | 468 kts | 288° |
| 2026-04-25 10:57 | 17.62108 | 77.35948 | 31450 ft | 470 kts | 288° |
| 2026-04-25 10:57 | 17.63409 | 77.32788 | 31858 ft | 473 kts | 288° |
| 2026-04-25 10:57 | 17.64698 | 77.29657 | 32302 ft | 473 kts | 288° |
| 2026-04-25 10:58 | 17.66004 | 77.26482 | 32856 ft | 472 kts | 288° |
| 2026-04-25 10:58 | 17.67309 | 77.23311 | 33426 ft | 469 kts | 288° |
| 2026-04-25 10:58 | 17.68602 | 77.20165 | 33971 ft | 468 kts | 287° |
| 2026-04-25 10:58 | 17.70006 | 77.16745 | 34489 ft | 465 kts | 287° |
| 2026-04-25 10:59 | 17.71286 | 77.13625 | 35007 ft | 462 kts | 287° |
| 2026-04-25 10:59 | 17.72553 | 77.10536 | 35532 ft | 459 kts | 287° |
| 2026-04-25 10:59 | 17.73839 | 77.07398 | 36050 ft | 456 kts | 287° |
| 2026-04-25 10:59 | 17.76331 | 77.01308 | 37000 ft | 451 kts | 287° |
| 2026-04-25 11:00 | 17.78799 | 76.95270 | 37928 ft | 447 kts | 287° |
| 2026-04-25 11:00 | 17.83616 | 76.83466 | 39241 ft | 444 kts | 287° |
| 2026-04-25 11:00 | 17.85777 | 76.78162 | 39630 ft | 446 kts | 288° |
| 2026-04-25 11:00 | 17.87003 | 76.75150 | 39768 ft | 449 kts | 288° |
| 2026-04-25 11:01 | 17.91455 | 76.64203 | 39877 ft | 460 kts | 288° |
| 2026-04-25 11:01 | 17.99853 | 76.44686 | 39834 ft | 461 kts | 303° |
| 2026-04-25 11:01 | 18.03401 | 76.41212 | 39841 ft | 465 kts | 317° |
| 2026-04-25 11:02 | 18.26311 | 76.29098 | 39793 ft | 457 kts | 328° |
| 2026-04-25 11:02 | 18.49191 | 76.16978 | 39928 ft | 464 kts | 326° |
| 2026-04-25 11:02 | 18.67390 | 76.07325 | 40088 ft | 481 kts | 327° |
| 2026-04-25 11:02 | 18.70389 | 76.05741 | 39974 ft | 477 kts | 327° |
| 2026-04-25 11:03 | 18.77243 | 76.02139 | 39718 ft | 446 kts | 326° |
| 2026-04-25 11:03 | 18.79993 | 76.00676 | 39824 ft | 449 kts | 326° |
| 2026-04-25 11:03 | 18.82803 | 75.99171 | 39868 ft | 454 kts | 326° |
| 2026-04-25 11:04 | 18.92522 | 75.93972 | 39890 ft | 472 kts | 327° |
| 2026-04-25 11:04 | 19.04271 | 75.87719 | 39889 ft | 471 kts | 327° |
| 2026-04-25 11:05 | 19.15787 | 75.81579 | 39814 ft | 456 kts | 326° |
| 2026-04-25 11:05 | 19.30535 | 75.73682 | 39858 ft | 450 kts | 327° |